Time;durP1;ratioP1;P1;durP2;ratioP2;P2;SDS_P1;SDS_P2;PMS_P1;PMS_P2;Temp;Humidity;BMP_temperature;BMP_pressure;BME280_temperature;BME280_humidity;BME280_pressure;Samples;Min_cycle;Max_cycle;Signal;HPM_P1;HPM_P2
2023/07/03 00:02:00;;;;;;;13.33;6.70;;;;;;;;;;8345726;28;20037;-59
2023/07/03 00:06:01;;;;;;;12.82;6.78;;;;;;;;;;8341954;28;20056;-60
2023/07/03 00:10:01;;;;;;;14.67;6.80;;;;;;;;;;8351043;28;20033;-59
2023/07/03 00:14:01;;;;;;;15.13;7.18;;;;;;;;;;8347549;28;20938;-59
2023/07/03 00:18:01;;;;;;;12.13;6.73;;;;;;;;;;8337811;28;20596;-59
2023/07/03 00:22:02;;;;;;;15.15;7.20;;;;;;;;;;8339614;28;20389;-59
2023/07/03 00:26:02;;;;;;;15.57;7.43;;;;;;;;;;8345364;28;20646;-59
2023/07/03 00:30:02;;;;;;;15.55;6.78;;;;;;;;;;8348041;28;20025;-59
2023/07/03 00:34:02;;;;;;;14.88;7.15;;;;;;;;;;8343647;28;20124;-59
2023/07/03 00:38:03;;;;;;;14.77;6.70;;;;;;;;;;8342859;28;20016;-59
2023/07/03 00:42:03;;;;;;;20.77;6.87;;;;;;;;;;8345685;28;20162;-59
2023/07/03 00:46:03;;;;;;;15.02;6.50;;;;;;;;;;8340144;28;20037;-59
2023/07/03 00:50:04;;;;;;;13.98;7.07;;;;;;;;;;8326140;28;20648;-59
2023/07/03 00:54:05;;;;;;;17.05;7.22;;;;;;;;;;8344848;28;20094;-59
2023/07/03 00:58:05;;;;;;;16.97;6.70;;;;;;;;;;8340029;28;20729;-59
2023/07/03 01:02:18;;;;;;;14.15;6.72;;;;;;;;;;8340715;28;20473;-59
2023/07/03 01:06:20;;;;;;;16.75;6.72;;;;;;;;;;8352245;28;20079;-59
2023/07/03 01:10:22;;;;;;;11.45;6.78;;;;;;;;;;8344515;28;20027;-59
2023/07/03 01:14:23;;;;;;;13.40;6.78;;;;;;;;;;8340977;28;20037;-59
2023/07/03 01:18:23;;;;;;;13.68;6.65;;;;;;;;;;8338674;28;20124;-59
2023/07/03 01:22:26;;;;;;;16.20;7.20;;;;;;;;;;8340411;28;20027;-59
2023/07/03 01:26:26;;;;;;;13.48;7.18;;;;;;;;;;8342497;28;20039;-59
2023/07/03 01:30:28;;;;;;;16.95;6.95;;;;;;;;;;8348353;28;20064;-60
2023/07/03 01:34:29;;;;;;;12.85;7.22;;;;;;;;;;8345684;28;20115;-59
2023/07/03 01:38:29;;;;;;;16.42;8.25;;;;;;;;;;8336701;28;20067;-59
2023/07/03 01:42:31;;;;;;;14.98;7.00;;;;;;;;;;8337022;28;20033;-59
2023/07/03 01:46:31;;;;;;;16.63;7.43;;;;;;;;;;8338250;28;20611;-59
2023/07/03 01:50:31;;;;;;;16.10;7.63;;;;;;;;;;8337757;28;20104;-59
2023/07/03 01:54:36;;;;;;;18.23;7.67;;;;;;;;;;8337859;28;20055;-60
2023/07/03 01:58:42;;;;;;;17.33;7.47;;;;;;;;;;8321532;28;20278;-59
2023/07/03 02:02:43;;;;;;;14.70;7.30;;;;;;;;;;8336569;28;20135;-59
2023/07/03 02:06:44;;;;;;;12.82;6.80;;;;;;;;;;8342518;28;20051;-59
2023/07/03 02:10:45;;;;;;;16.58;7.82;;;;;;;;;;8349165;28;20217;-59
2023/07/03 02:14:45;;;;;;;15.30;7.27;;;;;;;;;;8342256;28;20024;-59
2023/07/03 02:18:49;;;;;;;19.70;7.43;;;;;;;;;;8341867;28;20287;-59
2023/07/03 02:22:49;;;;;;;13.27;6.97;;;;;;;;;;8341571;28;20711;-59
2023/07/03 02:26:50;;;;;;;16.65;7.10;;;;;;;;;;8334772;28;20378;-59
2023/07/03 02:30:50;;;;;;;14.55;6.97;;;;;;;;;;8336912;28;20040;-59
2023/07/03 02:34:50;;;;;;;15.65;7.32;;;;;;;;;;8337434;28;20025;-60
2023/07/03 02:38:50;;;;;;;15.73;6.83;;;;;;;;;;8344374;28;20024;-59
2023/07/03 02:42:51;;;;;;;15.32;6.82;;;;;;;;;;8344958;28;20033;-59
2023/07/03 02:46:51;;;;;;;15.05;6.75;;;;;;;;;;8336870;28;20033;-60
2023/07/03 02:50:52;;;;;;;18.95;6.90;;;;;;;;;;8346717;28;20048;-59
2023/07/03 02:54:52;;;;;;;14.18;6.68;;;;;;;;;;8340841;28;20043;-59
2023/07/03 02:58:52;;;;;;;16.65;6.43;;;;;;;;;;8339833;28;20414;-59
2023/07/03 03:02:53;;;;;;;13.98;6.30;;;;;;;;;;8335831;28;20052;-59
2023/07/03 03:06:53;;;;;;;17.03;7.03;;;;;;;;;;8341159;28;20041;-59
2023/07/03 03:10:53;;;;;;;13.90;6.57;;;;;;;;;;8347051;28;20028;-59
2023/07/03 03:14:54;;;;;;;13.27;5.50;;;;;;;;;;8344011;28;20107;-59
2023/07/03 03:18:54;;;;;;;16.30;6.13;;;;;;;;;;8334559;28;20107;-59
2023/07/03 03:22:54;;;;;;;15.20;6.10;;;;;;;;;;8322917;28;20282;-59
2023/07/03 03:26:54;;;;;;;15.43;6.47;;;;;;;;;;8338748;28;20035;-59
2023/07/03 03:30:54;;;;;;;17.97;6.37;;;;;;;;;;8345357;28;20053;-59
2023/07/03 03:34:55;;;;;;;13.35;5.47;;;;;;;;;;8336351;28;20102;-59
2023/07/03 03:38:55;;;;;;;14.93;5.60;;;;;;;;;;8333625;28;20048;-59
2023/07/03 03:42:55;;;;;;;17.20;6.10;;;;;;;;;;8315197;28;20094;-60
2023/07/03 03:46:55;;;;;;;12.60;6.35;;;;;;;;;;8337757;28;20051;-59
2023/07/03 03:50:56;;;;;;;13.05;6.15;;;;;;;;;;8338326;28;20036;-59
2023/07/03 03:54:56;;;;;;;12.93;6.15;;;;;;;;;;8335768;28;20503;-59
2023/07/03 03:58:57;;;;;;;14.25;5.47;;;;;;;;;;8336103;28;20049;-59
2023/07/03 04:02:57;;;;;;;13.97;5.63;;;;;;;;;;8335572;28;20124;-59
2023/07/03 04:06:58;;;;;;;13.30;6.43;;;;;;;;;;8343358;28;20032;-59
2023/07/03 04:10:58;;;;;;;12.75;5.75;;;;;;;;;;8341972;28;20123;-59
2023/07/03 04:14:58;;;;;;;12.40;5.33;;;;;;;;;;8335817;28;20032;-59
2023/07/03 04:18:59;;;;;;;11.37;5.97;;;;;;;;;;8344709;28;20127;-59
2023/07/03 04:22:59;;;;;;;17.42;6.15;;;;;;;;;;8338054;28;20031;-59
2023/07/03 04:27:00;;;;;;;16.70;6.03;;;;;;;;;;8343624;28;20033;-60
2023/07/03 04:31:02;;;;;;;16.93;6.63;;;;;;;;;;8340762;28;20278;-59
2023/07/03 04:35:03;;;;;;;12.88;5.60;;;;;;;;;;8345472;28;20428;-59
2023/07/03 04:39:03;;;;;;;12.93;5.75;;;;;;;;;;8339701;28;20131;-59
2023/07/03 04:43:07;;;;;;;9.85;5.10;;;;;;;;;;8343588;28;20143;-60
2023/07/03 04:47:08;;;;;;;12.15;4.97;;;;;;;;;;8345699;28;20129;-59
2023/07/03 04:51:10;;;;;;;13.65;5.78;;;;;;;;;;8351043;28;20044;-59
2023/07/03 04:55:12;;;;;;;15.77;5.65;;;;;;;;;;8338270;28;20171;-59
2023/07/03 04:59:12;;;;;;;11.68;5.30;;;;;;;;;;8351226;28;20029;-59
2023/07/03 05:03:13;;;;;;;14.77;5.45;;;;;;;;;;8351938;28;20259;-59
2023/07/03 05:07:17;;;;;;;36.17;6.50;;;;;;;;;;8335863;28;20033;-59
2023/07/03 05:11:17;;;;;;;17.33;5.85;;;;;;;;;;8338059;28;20117;-60
2023/07/03 05:15:18;;;;;;;16.03;5.23;;;;;;;;;;8339888;28;20095;-59
2023/07/03 05:19:19;;;;;;;15.73;5.53;;;;;;;;;;8347425;28;20354;-60
2023/07/03 05:23:19;;;;;;;18.83;5.10;;;;;;;;;;8335884;28;20028;-59
2023/07/03 05:27:19;;;;;;;15.48;4.90;;;;;;;;;;8336137;28;20024;-59
2023/07/03 05:31:22;;;;;;;23.43;5.17;;;;;;;;;;8338094;28;20095;-60
2023/07/03 05:35:22;;;;;;;13.05;4.18;;;;;;;;;;8341327;28;20024;-59
2023/07/03 05:39:22;;;;;;;12.55;4.57;;;;;;;;;;8339988;28;20101;-59
2023/07/03 05:43:23;;;;;;;17.27;4.88;;;;;;;;;;8337132;28;20029;-59
2023/07/03 05:47:23;;;;;;;17.40;4.80;;;;;;;;;;8335599;28;20643;-60
2023/07/03 05:51:23;;;;;;;15.65;4.70;;;;;;;;;;8336755;28;20043;-59
2023/07/03 05:55:23;;;;;;;14.53;4.53;;;;;;;;;;8336441;28;20124;-59
2023/07/03 05:59:24;;;;;;;18.92;4.50;;;;;;;;;;8325712;28;20021;-59
2023/07/03 06:03:25;;;;;;;14.48;4.20;;;;;;;;;;8343239;28;20044;-59
2023/07/03 06:07:25;;;;;;;12.43;4.13;;;;;;;;;;8332626;28;20095;-59
2023/07/03 06:11:25;;;;;;;12.48;4.07;;;;;;;;;;8336259;28;20097;-59
2023/07/03 06:15:25;;;;;;;12.20;4.35;;;;;;;;;;8334628;28;20095;-59
2023/07/03 06:19:26;;;;;;;13.32;4.60;;;;;;;;;;8337576;28;20944;-59
2023/07/03 06:23:27;;;;;;;17.27;4.30;;;;;;;;;;8334518;28;20353;-59
2023/07/03 06:27:27;;;;;;;10.07;4.20;;;;;;;;;;8333092;28;20041;-59
2023/07/03 06:31:27;;;;;;;12.48;4.38;;;;;;;;;;8338646;28;20048;-59
2023/07/03 06:35:27;;;;;;;12.73;4.30;;;;;;;;;;8336115;28;20139;-59
2023/07/03 06:39:27;;;;;;;8.82;3.47;;;;;;;;;;8336602;28;20020;-59
2023/07/03 06:43:28;;;;;;;9.68;3.60;;;;;;;;;;8334304;28;20528;-59
2023/07/03 06:47:28;;;;;;;10.75;3.63;;;;;;;;;;8331900;28;20041;-59
2023/07/03 06:51:28;;;;;;;9.13;3.40;;;;;;;;;;8342490;28;20040;-59
2023/07/03 06:55:28;;;;;;;10.73;3.40;;;;;;;;;;8336762;28;20024;-59
2023/07/03 06:59:28;;;;;;;8.32;3.50;;;;;;;;;;8337368;28;20445;-59
2023/07/03 07:03:29;;;;;;;8.93;2.70;;;;;;;;;;8336326;28;20051;-59
2023/07/03 07:07:29;;;;;;;11.20;2.80;;;;;;;;;;8335099;28;20091;-59
2023/07/03 07:11:30;;;;;;;9.97;3.10;;;;;;;;;;8335751;28;20139;-59
2023/07/03 07:15:35;;;;;;;8.57;2.83;;;;;;;;;;8332215;28;20518;-59
2023/07/03 07:19:35;;;;;;;6.78;2.53;;;;;;;;;;8332567;28;20064;-59
2023/07/03 07:23:35;;;;;;;9.85;2.95;;;;;;;;;;8335813;28;20520;-59
2023/07/03 07:27:35;;;;;;;8.10;3.13;;;;;;;;;;8333802;28;20024;-59
2023/07/03 07:31:36;;;;;;;7.60;3.00;;;;;;;;;;8333231;28;20070;-60
2023/07/03 07:35:37;;;;;;;6.93;3.00;;;;;;;;;;8323597;28;20021;-59
2023/07/03 07:39:40;;;;;;;10.07;2.78;;;;;;;;;;8340770;28;20143;-59
2023/07/03 07:43:40;;;;;;;7.68;3.00;;;;;;;;;;8332361;28;20390;-59
2023/07/03 07:47:40;;;;;;;8.13;2.77;;;;;;;;;;8330406;28;20032;-59
2023/07/03 07:51:41;;;;;;;10.05;2.80;;;;;;;;;;8329802;28;20194;-59
2023/07/03 07:55:41;;;;;;;10.60;3.00;;;;;;;;;;8321786;28;20028;-59
2023/07/03 07:59:41;;;;;;;7.15;2.38;;;;;;;;;;8337200;28;20060;-59
2023/07/03 08:03:42;;;;;;;7.13;2.72;;;;;;;;;;8320775;28;20037;-59
2023/07/03 08:07:42;;;;;;;6.32;2.35;;;;;;;;;;8339768;28;20032;-59
2023/07/03 08:11:44;;;;;;;8.47;2.47;;;;;;;;;;8339499;28;20025;-59
2023/07/03 08:15:45;;;;;;;9.73;2.80;;;;;;;;;;8338381;28;21043;-59
2023/07/03 08:19:45;;;;;;;11.77;2.75;;;;;;;;;;8339340;28;20056;-59
2023/07/03 08:23:45;;;;;;;8.18;2.80;;;;;;;;;;8353774;28;20021;-59
2023/07/03 08:27:46;;;;;;;10.50;2.50;;;;;;;;;;8351302;28;20397;-60
2023/07/03 08:31:46;;;;;;;11.73;3.00;;;;;;;;;;8352477;28;20040;-59
2023/07/03 08:35:46;;;;;;;9.23;3.10;;;;;;;;;;8337365;28;20318;-59
2023/07/03 08:39:47;;;;;;;12.82;3.13;;;;;;;;;;8343581;28;20870;-59
2023/07/03 08:43:49;;;;;;;9.10;2.85;;;;;;;;;;8341067;28;20029;-59
2023/07/03 08:47:50;;;;;;;8.00;2.65;;;;;;;;;;8340275;28;20040;-59
2023/07/03 08:51:52;;;;;;;11.63;3.00;;;;;;;;;;8342251;28;20046;-59
2023/07/03 08:55:55;;;;;;;9.63;2.50;;;;;;;;;;8338800;28;20943;-59
2023/07/03 08:59:55;;;;;;;8.27;2.97;;;;;;;;;;8339791;28;20840;-59
2023/07/03 09:04:05;;;;;;;6.50;2.60;;;;;;;;;;8336880;28;20044;-59
2023/07/03 09:08:07;;;;;;;3.58;2.38;;;;;;;;;;8337781;28;20025;-59
2023/07/03 09:12:07;;;;;;;6.10;2.47;;;;;;;;;;8334375;28;20060;-60
2023/07/03 09:16:22;;;;;;;7.53;2.40;;;;;;;;;;8338697;28;20036;-59
2023/07/03 09:20:23;;;;;;;7.45;2.60;;;;;;;;;;8346027;28;20035;-59
2023/07/03 09:24:28;;;;;;;6.80;2.50;;;;;;;;;;8339151;28;20031;-59
2023/07/03 09:28:29;;;;;;;5.60;2.38;;;;;;;;;;8338191;28;20051;-60
2023/07/03 09:32:30;;;;;;;5.57;2.70;;;;;;;;;;8346972;28;20440;-59
2023/07/03 09:36:31;;;;;;;7.78;2.83;;;;;;;;;;8336126;28;20025;-59
2023/07/03 09:40:34;;;;;;;8.48;2.60;;;;;;;;;;8337350;28;20171;-59
2023/07/03 09:44:40;;;;;;;9.55;2.90;;;;;;;;;;8335417;28;20822;-59
2023/07/03 09:48:40;;;;;;;6.85;3.00;;;;;;;;;;8334696;28;20041;-59
2023/07/03 09:52:43;;;;;;;9.60;2.80;;;;;;;;;;8345892;28;20037;-59
2023/07/03 09:56:43;;;;;;;6.72;2.50;;;;;;;;;;8344553;28;20474;-59
2023/07/03 10:00:48;;;;;;;7.23;2.87;;;;;;;;;;8337274;28;20461;-59
2023/07/03 10:04:48;;;;;;;5.88;2.47;;;;;;;;;;8337518;28;20462;-59
2023/07/03 10:08:51;;;;;;;8.98;3.00;;;;;;;;;;8337283;28;20489;-59
2023/07/03 10:12:58;;;;;;;7.97;2.50;;;;;;;;;;8341755;28;20128;-59
2023/07/03 10:16:59;;;;;;;8.38;2.72;;;;;;;;;;8346308;28;20098;-59
2023/07/03 10:21:04;;;;;;;5.43;2.38;;;;;;;;;;8340068;28;20037;-59
2023/07/03 10:25:06;;;;;;;6.18;2.53;;;;;;;;;;8342241;28;20036;-59
2023/07/03 10:29:11;;;;;;;6.45;2.85;;;;;;;;;;8333570;28;20917;-59
2023/07/03 10:33:15;;;;;;;5.80;2.40;;;;;;;;;;8333621;28;20430;-59
2023/07/03 10:37:17;;;;;;;7.05;2.47;;;;;;;;;;8335571;28;20032;-59
2023/07/03 10:41:21;;;;;;;6.50;2.50;;;;;;;;;;8336552;28;20027;-59
2023/07/03 10:45:21;;;;;;;6.10;2.78;;;;;;;;;;8361204;28;20129;-59
2023/07/03 10:49:26;;;;;;;6.63;2.92;;;;;;;;;;8368967;28;20101;-59
2023/07/03 10:53:35;;;;;;;5.97;2.88;;;;;;;;;;8370830;28;20358;-59
2023/07/03 10:57:45;;;;;;;8.02;2.90;;;;;;;;;;8366390;28;20896;-59
2023/07/03 11:02:03;;;;;;;6.00;2.70;;;;;;;;;;8368099;28;20043;-59
2023/07/03 11:06:05;;;;;;;9.32;2.70;;;;;;;;;;8367051;28;20036;-59
2023/07/03 11:10:27;;;;;;;7.68;2.70;;;;;;;;;;8367164;28;20119;-59
2023/07/03 11:14:33;;;;;;;6.00;2.50;;;;;;;;;;8375434;28;20123;-59
2023/07/03 11:18:49;;;;;;;6.55;2.72;;;;;;;;;;8369460;28;20036;-59
2023/07/03 11:23:02;;;;;;;5.93;2.60;;;;;;;;;;8371485;28;20243;-59
2023/07/03 11:27:08;;;;;;;5.65;2.28;;;;;;;;;;8375296;28;20590;-59
2023/07/03 11:31:09;;;;;;;6.55;2.45;;;;;;;;;;8373390;28;20749;-59
2023/07/03 11:35:12;;;;;;;5.70;2.58;;;;;;;;;;8371029;28;20735;-59
2023/07/03 11:39:15;;;;;;;5.25;2.40;;;;;;;;;;8366946;28;20684;-59
2023/07/03 11:43:15;;;;;;;9.60;2.85;;;;;;;;;;8365960;28;20082;-59
2023/07/03 11:47:27;;;;;;;6.18;2.70;;;;;;;;;;8338464;28;20139;-59
2023/07/03 11:51:32;;;;;;;8.07;2.75;;;;;;;;;;8346293;28;20032;-59
2023/07/03 11:55:35;;;;;;;5.53;2.47;;;;;;;;;;8353986;28;20074;-59
2023/07/03 11:59:39;;;;;;;6.72;2.47;;;;;;;;;;8352653;28;20035;-59
2023/07/03 12:03:49;;;;;;;4.90;2.60;;;;;;;;;;8342110;28;20044;-60
2023/07/03 12:07:49;;;;;;;5.30;2.60;;;;;;;;;;8343358;28;20155;-60
2023/07/03 12:11:59;;;;;;;6.45;2.38;;;;;;;;;;8349179;28;20040;-60
2023/07/03 12:16:02;;;;;;;5.65;2.75;;;;;;;;;;8337297;28;20135;-59
2023/07/03 12:20:18;;;;;;;6.47;2.72;;;;;;;;;;8338628;28;20029;-60
2023/07/03 12:24:23;;;;;;;7.78;2.60;;;;;;;;;;8341527;28;20129;-59
2023/07/03 12:28:24;;;;;;;8.88;2.80;;;;;;;;;;8344774;28;20107;-59
2023/07/03 12:32:31;;;;;;;6.22;2.50;;;;;;;;;;8340766;28;20037;-60
2023/07/03 12:36:32;;;;;;;5.57;2.20;;;;;;;;;;8344643;28;20035;-59
2023/07/03 12:40:32;;;;;;;6.45;2.50;;;;;;;;;;8343177;28;20093;-59
2023/07/03 12:44:33;;;;;;;5.20;2.75;;;;;;;;;;8340626;28;20690;-59
2023/07/03 12:48:33;;;;;;;5.95;2.75;;;;;;;;;;8345068;28;20032;-59
2023/07/03 12:52:35;;;;;;;6.78;2.63;;;;;;;;;;8342648;28;20082;-59
2023/07/03 12:56:35;;;;;;;5.22;2.42;;;;;;;;;;8336179;28;20025;-59
2023/07/03 13:00:36;;;;;;;6.30;2.65;;;;;;;;;;8352400;28;20101;-60
2023/07/03 13:04:36;;;;;;;6.10;2.33;;;;;;;;;;8340448;28;20029;-59
2023/07/03 13:08:36;;;;;;;5.95;2.45;;;;;;;;;;8340126;28;20849;-59
2023/07/03 13:12:37;;;;;;;6.22;2.78;;;;;;;;;;8350892;28;20078;-59
2023/07/03 13:16:37;;;;;;;4.93;2.53;;;;;;;;;;8344603;28;20029;-59
2023/07/03 13:20:37;;;;;;;8.13;2.67;;;;;;;;;;8338325;28;20024;-59
2023/07/03 13:24:42;;;;;;;5.63;2.97;;;;;;;;;;8338229;28;20036;-59
2023/07/03 13:28:55;;;;;;;6.20;2.70;;;;;;;;;;8334935;28;21366;-59
2023/07/03 13:32:58;;;;;;;4.20;2.38;;;;;;;;;;8337232;28;20111;-59
2023/07/03 13:37:03;;;;;;;8.27;2.75;;;;;;;;;;8337121;28;20036;-59
2023/07/03 13:41:03;;;;;;;6.07;2.85;;;;;;;;;;8342402;28;20039;-60
2023/07/03 13:45:04;;;;;;;5.60;2.53;;;;;;;;;;8322606;28;20036;-60
2023/07/03 13:49:05;;;;;;;5.85;2.63;;;;;;;;;;8337239;28;20045;-59
2023/07/03 13:53:06;;;;;;;4.97;2.25;;;;;;;;;;8337638;28;20507;-59
2023/07/03 13:57:06;;;;;;;7.05;2.40;;;;;;;;;;8335151;28;20063;-59
2023/07/03 14:01:06;;;;;;;5.33;2.27;;;;;;;;;;8337122;28;20543;-59
2023/07/03 14:05:08;;;;;;;4.60;2.30;;;;;;;;;;8334792;28;20225;-59
2023/07/03 14:09:11;;;;;;;4.30;2.22;;;;;;;;;;8344204;28;20039;-59
2023/07/03 14:13:11;;;;;;;2.65;1.80;;;;;;;;;;8338127;28;20040;-59
2023/07/03 14:17:11;;;;;;;5.43;1.80;;;;;;;;;;8335543;28;20470;-60
2023/07/03 14:21:12;;;;;;;3.45;1.45;;;;;;;;;;8341542;28;20021;-60
2023/07/03 14:25:12;;;;;;;2.58;1.30;;;;;;;;;;8333405;28;20061;-60
2023/07/03 14:29:13;;;;;;;3.03;1.50;;;;;;;;;;8337888;28;20039;-60
2023/07/03 14:33:13;;;;;;;4.57;1.52;;;;;;;;;;8336173;28;20133;-60
2023/07/03 14:37:13;;;;;;;3.67;1.52;;;;;;;;;;8334306;28;20048;-59
2023/07/03 14:41:14;;;;;;;2.13;1.30;;;;;;;;;;8334990;28;20097;-59
2023/07/03 14:45:14;;;;;;;3.55;1.30;;;;;;;;;;8334671;28;20500;-59
2023/07/03 14:49:15;;;;;;;2.45;1.27;;;;;;;;;;8333452;28;20040;-59
2023/07/03 14:53:15;;;;;;;4.97;1.38;;;;;;;;;;8329586;28;20470;-60
2023/07/03 14:57:15;;;;;;;3.10;1.20;;;;;;;;;;8339008;28;20059;-59
2023/07/03 15:01:15;;;;;;;2.97;1.10;;;;;;;;;;8344855;28;20036;-59
2023/07/03 15:05:16;;;;;;;3.72;1.42;;;;;;;;;;8340590;28;20021;-60
2023/07/03 15:09:17;;;;;;;1.52;1.20;;;;;;;;;;8330111;28;20445;-60
2023/07/03 15:13:17;;;;;;;2.45;1.48;;;;;;;;;;8328880;28;20115;-59
2023/07/03 15:17:17;;;;;;;4.13;1.40;;;;;;;;;;8334513;28;20490;-59
2023/07/03 15:21:17;;;;;;;1.80;1.38;;;;;;;;;;8334727;28;20481;-59
2023/07/03 15:25:18;;;;;;;2.28;1.52;;;;;;;;;;8334830;28;20025;-59
2023/07/03 15:29:18;;;;;;;4.20;1.50;;;;;;;;;;8338103;28;20033;-59
2023/07/03 15:33:18;;;;;;;5.72;2.10;;;;;;;;;;8331919;28;20269;-59
2023/07/03 15:37:19;;;;;;;3.85;1.65;;;;;;;;;;8333056;28;20029;-60
2023/07/03 15:41:19;;;;;;;4.32;1.70;;;;;;;;;;8335009;28;20008;-59
2023/07/03 15:45:22;;;;;;;4.32;1.50;;;;;;;;;;8321524;28;20067;-60
2023/07/03 15:49:22;;;;;;;4.63;1.45;;;;;;;;;;8343671;28;20025;-59
2023/07/03 15:53:25;;;;;;;2.63;1.40;;;;;;;;;;8335400;28;20033;-59
2023/07/03 15:57:26;;;;;;;2.13;1.33;;;;;;;;;;8329944;28;20642;-59
2023/07/03 16:01:27;;;;;;;5.60;1.50;;;;;;;;;;8331121;28;21795;-59
2023/07/03 16:05:27;;;;;;;4.13;1.40;;;;;;;;;;8334352;28;20446;-59
2023/07/03 16:09:27;;;;;;;6.72;1.42;;;;;;;;;;8331955;28;20063;-59
2023/07/03 16:13:27;;;;;;;1.65;1.45;;;;;;;;;;8332856;28;20886;-61
2023/07/03 16:17:29;;;;;;;2.08;1.30;;;;;;;;;;8339538;28;20163;-60
2023/07/03 16:21:30;;;;;;;4.40;1.30;;;;;;;;;;8338673;28;20457;-60
2023/07/03 16:25:31;;;;;;;2.95;1.60;;;;;;;;;;8336106;28;20033;-60
2023/07/03 16:29:31;;;;;;;2.80;1.50;;;;;;;;;;8340629;28;20031;-60
2023/07/03 16:33:35;;;;;;;2.30;1.20;;;;;;;;;;8336480;28;20046;-60
2023/07/03 16:37:36;;;;;;;2.33;1.52;;;;;;;;;;8336496;28;20029;-60
2023/07/03 16:41:37;;;;;;;2.03;1.25;;;;;;;;;;8337057;28;20052;-60
2023/07/03 16:45:37;;;;;;;2.40;1.30;;;;;;;;;;8337354;28;20079;-60
2023/07/03 16:49:37;;;;;;;1.88;1.27;;;;;;;;;;8337392;28;20020;-60
2023/07/03 16:53:39;;;;;;;1.85;1.50;;;;;;;;;;8338059;28;20035;-60
2023/07/03 16:57:39;;;;;;;1.65;1.30;;;;;;;;;;8337477;28;20036;-60
2023/07/03 17:01:39;;;;;;;2.75;1.50;;;;;;;;;;8336638;28;20102;-60
2023/07/03 17:05:40;;;;;;;1.30;1.20;;;;;;;;;;8338433;28;20016;-60
2023/07/03 17:09:40;;;;;;;3.13;1.58;;;;;;;;;;8341017;28;20329;-60
2023/07/03 17:13:41;;;;;;;1.38;1.27;;;;;;;;;;8336239;28;20032;-60
2023/07/03 17:17:41;;;;;;;2.55;1.67;;;;;;;;;;8339300;28;20029;-60
2023/07/03 17:21:42;;;;;;;1.87;1.40;;;;;;;;;;8348267;28;20534;-60
2023/07/03 17:25:42;;;;;;;1.75;1.40;;;;;;;;;;8339704;28;20480;-60
2023/07/03 17:29:42;;;;;;;2.25;1.70;;;;;;;;;;8335315;28;20528;-60
2023/07/03 17:33:43;;;;;;;2.47;1.63;;;;;;;;;;8336352;28;20084;-59
2023/07/03 17:37:43;;;;;;;2.00;1.30;;;;;;;;;;8343054;28;20017;-59
2023/07/03 17:41:45;;;;;;;2.15;1.40;;;;;;;;;;8346859;28;20168;-60
2023/07/03 17:45:45;;;;;;;2.53;1.60;;;;;;;;;;8352061;28;20131;-59
2023/07/03 17:49:45;;;;;;;1.83;1.30;;;;;;;;;;8372317;28;20504;-60
2023/07/03 17:53:47;;;;;;;3.30;1.30;;;;;;;;;;8369334;28;20397;-60
2023/07/03 17:57:47;;;;;;;1.80;1.20;;;;;;;;;;8369587;28;20352;-61
2023/07/03 18:01:48;;;;;;;1.80;1.35;;;;;;;;;;8367851;28;20043;-60
2023/07/03 18:05:53;;;;;;;1.65;1.35;;;;;;;;;;8369377;28;20043;-59
2023/07/03 18:09:53;;;;;;;2.72;1.55;;;;;;;;;;8369696;28;20047;-60
2023/07/03 18:13:54;;;;;;;1.77;1.50;;;;;;;;;;8369697;28;20063;-60
2023/07/03 18:17:54;;;;;;;2.67;1.40;;;;;;;;;;8366659;28;20063;-59
2023/07/03 18:21:54;;;;;;;2.10;1.58;;;;;;;;;;8367468;28;20290;-60
2023/07/03 18:25:55;;;;;;;1.52;1.42;;;;;;;;;;8369196;28;20417;-59
2023/07/03 18:29:55;;;;;;;2.08;1.50;;;;;;;;;;8370220;28;20181;-59
2023/07/03 18:33:55;;;;;;;1.48;1.35;;;;;;;;;;8380579;28;20044;-59
2023/07/03 18:37:56;;;;;;;1.50;1.40;;;;;;;;;;8378136;28;20031;-59
2023/07/03 18:41:56;;;;;;;2.70;1.90;;;;;;;;;;8376345;28;20937;-61
2023/07/03 18:45:57;;;;;;;1.93;1.30;;;;;;;;;;8336858;28;20637;-59
2023/07/03 18:49:57;;;;;;;1.98;1.50;;;;;;;;;;8334776;28;20032;-60
2023/07/03 18:53:57;;;;;;;1.60;1.42;;;;;;;;;;8336750;28;20248;-59
2023/07/03 18:58:00;;;;;;;1.75;1.60;;;;;;;;;;8335589;28;20074;-59
2023/07/03 19:02:00;;;;;;;1.95;1.60;;;;;;;;;;8335127;28;20047;-59
2023/07/03 19:06:01;;;;;;;2.05;1.50;;;;;;;;;;8332235;28;20466;-59
2023/07/03 19:10:02;;;;;;;2.08;1.60;;;;;;;;;;8331170;28;20033;-59
2023/07/03 19:14:02;;;;;;;3.28;1.60;;;;;;;;;;8331803;28;20032;-59
2023/07/03 19:18:02;;;;;;;2.53;1.65;;;;;;;;;;8338688;28;20040;-59
2023/07/03 19:22:03;;;;;;;2.00;1.80;;;;;;;;;;8332340;28;20124;-59
2023/07/03 19:26:03;;;;;;;1.97;1.50;;;;;;;;;;8334544;28;20275;-59
2023/07/03 19:30:05;;;;;;;2.43;1.40;;;;;;;;;;8332212;28;20294;-60
2023/07/03 19:34:05;;;;;;;1.92;1.52;;;;;;;;;;8333035;28;20603;-59
2023/07/03 19:38:05;;;;;;;8.60;1.70;;;;;;;;;;8333695;28;20050;-59
2023/07/03 19:42:06;;;;;;;2.27;1.60;;;;;;;;;;8330344;28;20280;-59
2023/07/03 19:46:07;;;;;;;2.83;1.65;;;;;;;;;;8332994;28;20279;-59
2023/07/03 19:50:10;;;;;;;4.07;1.85;;;;;;;;;;8332261;28;20032;-59
2023/07/03 19:54:11;;;;;;;2.78;1.80;;;;;;;;;;8332100;28;20115;-59
2023/07/03 19:58:11;;;;;;;2.92;1.83;;;;;;;;;;8337897;28;20013;-59
2023/07/03 20:02:12;;;;;;;2.78;2.17;;;;;;;;;;8336898;28;20094;-59
2023/07/03 20:06:17;;;;;;;4.22;2.38;;;;;;;;;;8339532;28;20025;-59
2023/07/03 20:10:18;;;;;;;3.00;2.30;;;;;;;;;;8343892;28;20028;-58
2023/07/03 20:14:18;;;;;;;3.45;2.22;;;;;;;;;;8341446;28;20035;-59
2023/07/03 20:18:19;;;;;;;2.90;2.25;;;;;;;;;;8336121;28;20410;-59
2023/07/03 20:22:19;;;;;;;3.08;2.15;;;;;;;;;;8339226;28;20016;-59
2023/07/03 20:26:20;;;;;;;5.40;2.50;;;;;;;;;;8337708;28;20033;-59
2023/07/03 20:30:20;;;;;;;3.92;2.47;;;;;;;;;;8343134;28;20439;-59
2023/07/03 20:34:20;;;;;;;4.00;2.80;;;;;;;;;;8339587;28;20032;-59
2023/07/03 20:38:20;;;;;;;8.48;3.55;;;;;;;;;;8335286;28;20025;-60
2023/07/03 20:42:20;;;;;;;4.30;2.53;;;;;;;;;;8339200;28;20436;-59
2023/07/03 20:46:21;;;;;;;3.22;2.50;;;;;;;;;;8336136;28;20102;-59
2023/07/03 20:50:26;;;;;;;3.83;2.72;;;;;;;;;;8338922;28;20068;-59
2023/07/03 20:54:36;;;;;;;4.20;2.78;;;;;;;;;;8341487;28;20024;-59
2023/07/03 20:58:36;;;;;;;4.70;2.72;;;;;;;;;;8338351;28;20103;-59
2023/07/03 21:02:40;;;;;;;4.60;2.95;;;;;;;;;;8338061;28;20051;-59
2023/07/03 21:06:42;;;;;;;5.43;2.65;;;;;;;;;;8336230;28;20041;-59
2023/07/03 21:10:42;;;;;;;5.75;2.88;;;;;;;;;;8337759;28;20050;-59
2023/07/03 21:14:42;;;;;;;3.92;2.60;;;;;;;;;;8340296;28;20536;-60
2023/07/03 21:18:43;;;;;;;4.03;2.50;;;;;;;;;;8342743;28;20033;-59
2023/07/03 21:22:43;;;;;;;4.27;2.40;;;;;;;;;;8351184;28;20035;-59
2023/07/03 21:26:43;;;;;;;3.47;2.47;;;;;;;;;;8335254;28;20551;-59
2023/07/03 21:30:43;;;;;;;8.30;2.60;;;;;;;;;;8334118;28;20865;-59
2023/07/03 21:34:46;;;;;;;5.15;2.45;;;;;;;;;;8336315;28;20473;-59
2023/07/03 21:38:48;;;;;;;3.50;2.35;;;;;;;;;;8336004;28;20044;-60
2023/07/03 21:42:48;;;;;;;5.75;2.72;;;;;;;;;;8335011;28;20726;-60
2023/07/03 21:46:49;;;;;;;3.65;2.53;;;;;;;;;;8335816;28;20039;-60
2023/07/03 21:50:52;;;;;;;3.50;2.40;;;;;;;;;;8336517;28;20021;-59
2023/07/03 21:54:53;;;;;;;3.88;2.63;;;;;;;;;;8337922;28;20287;-59
2023/07/03 21:58:54;;;;;;;2.58;2.20;;;;;;;;;;8335646;28;20029;-59
2023/07/03 22:02:54;;;;;;;2.97;2.10;;;;;;;;;;8332510;28;20052;-59
2023/07/03 22:06:55;;;;;;;2.53;2.20;;;;;;;;;;8337066;28;20037;-59
2023/07/03 22:10:55;;;;;;;4.75;2.30;;;;;;;;;;8345171;28;20032;-59
2023/07/03 22:14:55;;;;;;;3.60;2.20;;;;;;;;;;8334979;28;20061;-60
2023/07/03 22:18:55;;;;;;;3.83;2.55;;;;;;;;;;8334640;28;20410;-59
2023/07/03 22:22:55;;;;;;;2.63;2.20;;;;;;;;;;8343970;28;20294;-60
2023/07/03 22:26:56;;;;;;;4.20;2.22;;;;;;;;;;8338005;28;20032;-59
2023/07/03 22:30:56;;;;;;;3.75;2.00;;;;;;;;;;8340425;28;20037;-60
2023/07/03 22:34:57;;;;;;;2.92;2.10;;;;;;;;;;8342908;28;20918;-59
2023/07/03 22:38:57;;;;;;;3.35;1.80;;;;;;;;;;8338596;28;20020;-59
2023/07/03 22:42:57;;;;;;;3.95;2.17;;;;;;;;;;8337817;28;20470;-59
2023/07/03 22:46:57;;;;;;;2.70;2.00;;;;;;;;;;8334152;28;20037;-59
2023/07/03 22:50:58;;;;;;;3.45;2.10;;;;;;;;;;8334308;28;20028;-59
2023/07/03 22:54:58;;;;;;;1.85;1.75;;;;;;;;;;8335307;28;20039;-59
2023/07/03 22:58:58;;;;;;;2.58;1.88;;;;;;;;;;8340069;28;20037;-59
2023/07/03 23:02:59;;;;;;;2.75;1.95;;;;;;;;;;8335073;28;20044;-59
2023/07/03 23:06:59;;;;;;;3.17;2.03;;;;;;;;;;8340584;28;20035;-59
2023/07/03 23:10:59;;;;;;;3.60;1.80;;;;;;;;;;8346647;28;20218;-59
2023/07/03 23:14:59;;;;;;;2.72;1.90;;;;;;;;;;8336990;28;20037;-60
2023/07/03 23:19:00;;;;;;;2.37;1.80;;;;;;;;;;8339442;28;20269;-59
2023/07/03 23:23:00;;;;;;;2.78;2.00;;;;;;;;;;8337582;28;20027;-59
2023/07/03 23:27:00;;;;;;;2.30;1.77;;;;;;;;;;8338679;28;20031;-59
2023/07/03 23:31:04;;;;;;;2.60;1.90;;;;;;;;;;8342253;28;20033;-59
2023/07/03 23:35:05;;;;;;;2.50;2.00;;;;;;;;;;8335063;28;20669;-59
2023/07/03 23:39:08;;;;;;;2.80;1.98;;;;;;;;;;8334768;28;20029;-60
2023/07/03 23:43:08;;;;;;;3.60;2.20;;;;;;;;;;8335935;28;20029;-59
2023/07/03 23:47:08;;;;;;;4.32;2.30;;;;;;;;;;8334146;28;20881;-60
2023/07/03 23:51:09;;;;;;;5.57;2.35;;;;;;;;;;8332740;28;20021;-59
2023/07/03 23:55:10;;;;;;;6.20;2.30;;;;;;;;;;8334891;28;20028;-59
2023/07/03 23:59:11;;;;;;;4.07;2.08;;;;;;;;;;8335694;28;20035;-59
